METAR Data
IDs: Format: Raw Decoded Include TAF

Data at: 0206 UTC 24 Sep 2018

K3R7 240155Z AUTO 00000KT 10SM CLR 26/24 A2989 RMK AO2 T02570240
K3R7 240135Z AUTO 14003KT 10SM CLR 26/24 A2989 RMK AO2 T02570238
K3R7 240115Z AUTO 14003KT 10SM CLR 26/24 A2988 RMK AO2 T02600239
K3R7 240055Z AUTO 14003KT 10SM CLR 26/24 A2987 RMK AO2 T02620240
K3R7 240035Z AUTO 14004KT 10SM CLR 26/24 A2987 RMK AO2 T02610241
K3R7 240015Z AUTO 15004KT 10SM CLR 27/24 A2986 RMK AO2 T02650242
K3R7 232355Z AUTO 14004KT 10SM CLR 27/24 A2986 RMK AO2 T02690242 10285 20250
K3R7 232335Z AUTO 13005KT 10SM SCT014 27/24 A2987 RMK AO2 T02690243
K3R7 232315Z AUTO 14004KT 10SM CLR 27/24 A2987 RMK AO2 T02720243
K3R7 232255Z AUTO 13006KT 10SM SCT015 27/24 A2987 RMK AO2 T02700241
K3R7 232235Z AUTO 13007KT 10SM SCT016 27/24 A2986 RMK AO2 T02710240
K3R7 232215Z AUTO 13006KT 10SM CLR 27/24 A2986 RMK AO2 T02710239
K3R7 232155Z AUTO 14005KT 10SM CLR 27/24 A2986 RMK AO2 T02720238
K3R7 232135Z AUTO 13004KT 10SM CLR 27/24 A2987 RMK AO2 LTG DSNT NE T02730237
K3R7 232115Z AUTO 15005KT 10SM CLR 28/24 A2987 RMK AO2 LTG DSNT NE T02750236
K3R7 232055Z AUTO 15006KT 10SM SCT023 28/24 A2988 RMK AO2 T02790235
K3R7 232035Z AUTO 16007KT 10SM SCT021 29/24 A2988 RMK AO2 T02850240
K3R7 232015Z AUTO 17004KT 10SM CLR 29/24 A2989 RMK AO2 T02850235
K3R7 231955Z AUTO 00000KT 10SM CLR 28/23 A2989 RMK AO2 T02780232
K3R7 231935Z AUTO 13007KT 10SM CLR 28/23 A2989 RMK AO2 T02760232
K3R7 231915Z AUTO 19005KT 10SM CLR 27/23 A2991 RMK AO2 T02670233
K3R7 231855Z AUTO 14003KT 10SM CLR 26/23 A2992 RMK AO2 LTG DSNT SE T02610234
K3R7 231835Z AUTO 17005KT 10SM CLR 26/23 A2992 RMK AO2 T02600231
K3R7 231815Z AUTO 17003KT 10SM CLR 26/23 A2993 RMK AO2 T02560232
K3R7 231755Z AUTO 00000KT 10SM -DZ SCT025 SCT033 SCT049 25/23 A2994 RMK AO2 LTG DSNT SE P0003 6//// T02480233
K3R7 231735Z AUTO 00000KT 10SM -RA SCT007 BKN050 OVC075 24/23 A2996 RMK AO2 LTG DSNT NE P0002 T02420230
K3R7 231715Z AUTO 19004KT 10SM DZ SCT007 BKN036 OVC050 24/23 A2996 RMK AO2 LTG DSNT NE P0001 T02400230
K3R7 231650Z AUTO 21007KT 10SM DZ SCT007 BKN031 OVC080 24/23 A2997 RMK AO2 P0032 T02390228
K3R7 231635Z AUTO 19006KT 3SM -RA SCT006 BKN021 OVC029 24/23 A2998 RMK AO2 LTG DSNT S P0032 T02410232
K3R7 231555Z AUTO 27010KT 10SM SCT013 SCT018 SCT024 A2996 RMK AO2
K3R7 231535Z AUTO 16004KT 10SM -RA CLR 28/25 A2996 RMK AO2 T02810248
K3R7 231515Z AUTO 14004KT 10SM CLR 27/25 A2995 RMK AO2 T02730247
K3R7 231455Z AUTO 14004KT 10SM CLR 27/25 A2995 RMK AO2 6//// T02710246
K3R7 231435Z AUTO 13005KT 10SM CLR 26/24 A2994 RMK AO2 T02630243
K3R7 231415Z AUTO 13007KT 10SM CLR 26/24 A2994 RMK AO2 LTG DSNT SW T02580241
K3R7 231355Z AUTO 12004KT 10SM -DZ CLR A2994 RMK AO2 LTG DSNT W
K3R7 231335Z AUTO 11004KT 10SM -RA SCT031 SCT039 25/24 A2994 RMK AO2 T02500238
K3R7 231320Z AUTO 12004KT 10SM CLR 25/24 A2993 RMK AO2 T02470237
K3R7 231255Z AUTO 12004KT 10SM CLR 24/23 A2993 RMK AO2 T02420234
K3R7 231235Z AUTO 11005KT 10SM CLR 24/23 A2992 RMK AO2 T02400234
K3R7 231215Z AUTO 11005KT 10SM CLR 24/23 A2992 RMK AO2 T02400233
K3R7 231155Z AUTO 10005KT 10SM CLR 24/23 A2992 RMK AO2 6//// 7//// T02380233
K3R7 231135Z AUTO 10005KT 10SM CLR 24/23 A2991 RMK AO2 T02380233
K3R7 231115Z AUTO 10004KT 10SM CLR 24/23 A2991 RMK AO2 T02370232
K3R7 231055Z AUTO 10005KT 10SM CLR 24/23 A2991 RMK AO2 T02370232
K3R7 231035Z AUTO 12004KT 10SM CLR 24/23 A2991 RMK AO2 T02370232
K3R7 231015Z AUTO 10004KT 10SM CLR 24/23 A2990 RMK AO2 T02350230
K3R7 230955Z AUTO 00000KT 10SM CLR 24/23 A2990 RMK AO2 T02350230
K3R7 230935Z AUTO 09003KT 10SM SCT100 24/23 A2990 RMK AO2 T02360230
K3R7 230920Z AUTO 10003KT 10SM CLR 24/23 A2991 RMK AO2 T02360230
K3R7 230850Z AUTO 10004KT 10SM CLR 24/23 A2991 RMK AO2 6//// T02370230
K3R7 230830Z AUTO 00000KT 10SM CLR 24/23 A2992 RMK AO2 T02360230
K3R7 230815Z AUTO 00000KT 10SM CLR 24/23 A2992 RMK AO2 T02350229
K3R7 230755Z AUTO 00000KT 10SM CLR 24/23 A2993 RMK AO2 T02350228
K3R7 230735Z AUTO 00000KT 10SM CLR 24/23 A2993 RMK AO2 LTG DSNT W T02360229
K3R7 230715Z AUTO 00000KT 10SM CLR 24/23 A2993 RMK AO2 T02370229
K3R7 230655Z AUTO 10SM CLR 24/23 A2993 RMK AO2 T02370230
K3R7 230635Z AUTO 00000KT 10SM CLR 24/23 A2994 RMK AO2 T02370230
K3R7 230615Z AUTO 10SM CLR 24/23 A2994 RMK AO2 T02370230
K3R7 230555Z AUTO 00000KT 10SM CLR 24/23 A2994 RMK AO2 6//// T02380230
K3R7 230535Z AUTO 13003KT 10SM CLR 24/23 A2994 RMK AO2 T02390230
K3R7 230515Z AUTO 13004KT 10SM CLR 24/23 A2994 RMK AO2 T02380230
K3R7 230455Z AUTO 13004KT 10SM CLR 24/23 A2995 RMK AO2 T02390230
K3R7 230435Z AUTO 12004KT 10SM CLR 24/23 A2995 RMK AO2 T02400231
K3R7 230415Z AUTO 12004KT 10SM CLR 24/23 A2996 RMK AO2 T02400230
K3R7 230355Z AUTO 13004KT 10SM CLR 24/23 A2996 RMK AO2 T02400231
K3R7 230335Z AUTO 10003KT 10SM SCT005 24/23 A2996 RMK AO2 T02400232
K3R7 230315Z AUTO 11004KT 10SM CLR 24/23 A2995 RMK AO2 T02400230
K3R7 230255Z AUTO 00000KT 10SM CLR 24/23 A2995 RMK AO2 T02410230
K3R7 230235Z AUTO 12003KT 10SM CLR 24/23 A2994 RMK AO2 T02410230
K3R7 230215Z AUTO 11004KT 10SM CLR 24/23 A2994 RMK AO2 T02410232
K3R7 230155Z AUTO 10003KT 10SM CLR 24/24 A2994 RMK AO2 T02430236
K3R7 230135Z AUTO 11003KT 10SM CLR 24/24 A2994 RMK AO2 T02430236
K3R7 230115Z AUTO 00000KT 10SM CLR 25/24 A2994 RMK AO2 T02450237
K3R7 230055Z AUTO 00000KT 10SM CLR 25/24 A2994 RMK AO2 T02460238
K3R7 230035Z AUTO 00000KT 10SM CLR 25/24 A2994 RMK AO2 T02470238
K3R7 230020Z AUTO 00000KT 10SM CLR 25/24 A2994 RMK AO2 T02490237
K3R7 222355Z AUTO 00000KT 10SM SCT007 SCT018 SCT050 25/24 A2994 RMK AO2 P0001 6//// T02510238
K3R7 222335Z AUTO 00000KT 10SM -RA BKN009 SCT018 BKN050 25/24 A2994 RMK AO2 P0001 T02530238
K3R7 222315Z AUTO 00000KT 10SM -RA SCT009 BKN050 BKN075 26/24 A2994 RMK AO2 T02550238
K3R7 222255Z AUTO 00000KT 10SM CLR 26/24 A2994 RMK AO2 T02550236
K3R7 222235Z AUTO 00000KT 10SM SCT009 26/24 A2994 RMK AO2 T02560235
K3R7 222215Z AUTO 00000KT 10SM BKN009 BKN110 26/24 A2994 RMK AO2 T02570235
K3R7 222155Z AUTO 00000KT 10SM SCT011 SCT110 26/24 A2994 RMK AO2 T02570237
K3R7 222135Z AUTO 10003KT 10SM CLR 26/23 A2993 RMK AO2 LTG DSNT NE SW AND W T02570234
K3R7 222115Z AUTO 00000KT 10SM CLR 25/23 A2994 RMK AO2 T02530231
K3R7 222050Z AUTO 00000KT 10SM SCT007 SCT034 25/23 A2994 RMK AO2 LTG DSNT E 60019 T02510233
K3R7 222035Z AUTO 00000KT 10SM SCT007 SCT030 SCT036 25/24 A2995 RMK AO2 LTG DSNT NE T02500235
K3R7 222015Z AUTO 00000KT 10SM -RA BKN007 BKN030 BKN042 25/23 A2996 RMK AO2 LTG DSNT W T02470232
K3R7 221955Z AUTO 00000KT 10SM SCT005 SCT029 BKN120 25/23 A2996 RMK AO2 LTG DSNT NE P0007 T02450232
K3R7 221935Z AUTO 27003KT 10SM -RA SCT004 BKN027 OVC038 24/23 A2997 RMK AO2 LTG DSNT SW P0007 T02430231
K3R7 221915Z AUTO 00000KT 3SM RA SCT006 BKN037 OVC049 24/23 A2997 RMK AO2 LTG DSNT E P0006 T02410232
K3R7 221855Z AUTO 26003KT 7SM -RA SCT008 BKN039 OVC060 24/23 A2998 RMK AO2 LTG DSNT E P0012 T02410231
K3R7 221835Z AUTO 26006KT 5SM +RA SCT010 BKN022 OVC030 24/23 A2999 RMK AO2 LTG DSNT NE P0009 T02370229
K3R7 221815Z AUTO 27011G17KT 10SM SCT012 BKN022 OVC038 25/23 A2999 RMK AO2 LTG DSNT NE T02490226
K3R7 221755Z AUTO 24006KT 10SM SCT039 BKN048 BKN065 28/24 A2999 RMK AO2 LTG DSNT S THRU NW 60014 T02770235 10281 20236
K3R7 221735Z AUTO 17004KT 10SM SCT085 BKN110 28/24 A2998 RMK AO2 LTG DSNT S AND SW T02780237
K3R7 221715Z AUTO 16004KT 10SM SCT070 SCT090 OVC110 27/24 A2999 RMK AO2 T02720238
K3R7 221655Z AUTO 15004KT 10SM SCT070 SCT080 BKN100 27/24 A3000 RMK AO2 T02700242
K3R7 221635Z AUTO 13004KT 10SM SCT080 SCT100 27/24 A3000 RMK AO2 LTG DSNT SW T02670237
K3R7 221615Z AUTO 13004KT 10SM SCT050 SCT070 SCT090 26/24 A3000 RMK AO2 LTG DSNT S T02600238
K3R7 221555Z AUTO 00000KT 10SM -RA SCT050 SCT070 OVC080 25/23 A3000 RMK AO2 LTG DSNT S THRU W P0002 T02490233
K3R7 221535Z AUTO 00000KT 10SM SCT060 BKN080 OVC110 24/23 A3001 RMK AO2 P0002 T02440227
K3R7 221515Z AUTO 17003KT 10SM RA SCT039 BKN055 OVC070 24/23 A3002 RMK AO2 LTG DSNT W P0002 T02400225
K3R7 221455Z AUTO 17004KT 5SM RA SCT032 BKN041 OVC050 24/23 A3001 RMK AO2 LTG DSNT SW AND NW P0012 60012 T02390227
K3R7 221435Z AUTO 21011G15KT 10SM SCT012 SCT022 BKN038 25/23 A3001 RMK AO2 LTG DSNT W AND NW T02540225
K3R7 221415Z AUTO 12008KT 10SM SCT037 SCT044 26/24 A2999 RMK AO2 LTG DSNT W T02640237